createdAt,value
2017-10-18T00:01:58.876Z,24.40
2017-10-18T00:04:26.321Z,22.20
2017-10-18T00:06:53.737Z,26.07
2017-10-18T00:09:21.149Z,28.47
2017-10-18T00:11:48.590Z,25.80
2017-10-18T00:14:16.200Z,22.87
2017-10-18T00:16:43.652Z,22.70
2017-10-18T00:19:11.060Z,21.47
2017-10-18T00:21:38.512Z,25.40
2017-10-18T00:24:05.938Z,20.23
2017-10-18T00:26:33.360Z,25.27
2017-10-18T00:29:00.802Z,28.07
2017-10-18T00:31:28.239Z,27.57
2017-10-18T00:33:55.672Z,36.70
2017-10-18T00:36:23.492Z,22.90
2017-10-18T00:38:50.925Z,27.53
2017-10-18T00:41:18.338Z,35.38
2017-10-18T00:43:45.781Z,29.63
2017-10-18T00:46:13.210Z,27.50
2017-10-18T00:48:40.621Z,28.93
2017-10-18T00:51:08.065Z,27.80
2017-10-18T00:53:35.485Z,24.03
2017-10-18T00:56:03.453Z,31.70
2017-10-18T00:58:30.871Z,24.73
2017-10-18T01:00:58.307Z,29.90
2017-10-18T01:03:25.710Z,30.10
2017-10-18T01:05:53.297Z,24.97
2017-10-18T01:08:20.712Z,23.77
2017-10-18T01:10:48.142Z,24.27
2017-10-18T01:13:15.560Z,24.00
2017-10-18T01:15:42.989Z,21.90
2017-10-18T01:18:10.569Z,23.83
2017-10-18T01:20:38.009Z,22.53
2017-10-18T01:23:05.539Z,19.73
2017-10-18T01:25:33.254Z,24.30
2017-10-18T01:28:00.697Z,31.03
2017-10-18T01:30:28.165Z,21.30
2017-10-18T01:32:55.594Z,18.77
2017-10-18T01:35:23.018Z,28.67
2017-10-18T01:37:50.450Z,24.53
2017-10-18T01:40:17.861Z,24.23
2017-10-18T01:42:45.289Z,21.40
2017-10-18T01:45:12.718Z,19.43
2017-10-18T01:47:40.138Z,23.67
2017-10-18T01:50:07.661Z,19.60
2017-10-18T01:52:35.085Z,21.00
2017-10-18T01:55:02.502Z,20.93
2017-10-18T01:57:30.209Z,20.03
2017-10-18T01:59:57.657Z,23.73
2017-10-18T02:02:25.113Z,20.90
2017-10-18T02:04:52.521Z,19.30
2017-10-18T02:07:19.918Z,26.87
2017-10-18T02:09:47.343Z,27.30
2017-10-18T02:12:14.776Z,22.07
2017-10-18T02:14:42.202Z,19.13
2017-10-18T02:17:09.631Z,22.60
2017-10-18T02:19:37.053Z,21.80
2017-10-18T02:22:04.470Z,21.37
2017-10-18T02:24:31.912Z,19.67
2017-10-18T02:26:59.692Z,20.93
2017-10-18T02:29:27.159Z,24.50
2017-10-18T02:31:54.557Z,27.33
2017-10-18T02:34:22.097Z,20.90
2017-10-18T02:36:49.499Z,23.70
2017-10-18T02:39:16.924Z,24.40
2017-10-18T02:41:44.329Z,21.97
2017-10-18T02:44:11.761Z,26.80
2017-10-18T02:46:39.336Z,25.45
2017-10-18T02:49:06.751Z,21.10
2017-10-18T02:51:34.183Z,20.00
2017-10-18T02:54:01.761Z,27.57
2017-10-18T02:56:29.203Z,23.93
2017-10-18T02:58:56.613Z,25.33
2017-10-18T03:01:24.039Z,21.20
2017-10-18T03:03:51.449Z,24.70
2017-10-18T03:06:18.882Z,20.77
2017-10-18T03:08:46.306Z,18.65
2017-10-18T03:11:13.757Z,18.70
2017-10-18T03:13:41.192Z,28.10
2017-10-18T03:16:08.606Z,31.20
2017-10-18T03:18:36.035Z,30.87
2017-10-18T03:21:03.457Z,28.10
2017-10-18T03:23:30.917Z,26.23
2017-10-18T03:25:58.364Z,24.47
2017-10-18T03:28:25.799Z,24.67
2017-10-18T03:30:53.205Z,26.73
2017-10-18T03:33:20.767Z,37.00
2017-10-18T03:35:48.338Z,31.57
2017-10-18T03:38:15.771Z,32.40
2017-10-18T03:40:43.183Z,27.60
2017-10-18T03:43:10.607Z,24.43
2017-10-18T03:45:38.077Z,26.63
2017-10-18T03:48:05.517Z,32.50
2017-10-18T03:50:33.659Z,37.22
2017-10-18T03:53:01.109Z,34.47
2017-10-18T03:55:28.554Z,30.40
2017-10-18T03:57:55.965Z,27.27
2017-10-18T04:00:23.487Z,46.73
2017-10-18T04:02:50.904Z,33.03
2017-10-18T04:05:18.342Z,29.23
2017-10-18T04:07:45.767Z,33.50
2017-10-18T04:10:13.213Z,40.13
2017-10-18T04:12:40.628Z,56.92
2017-10-18T04:15:08.043Z,313.80
2017-10-18T04:17:35.477Z,158.00
2017-10-18T04:20:02.911Z,149.00
2017-10-18T04:22:30.342Z,134.87
2017-10-18T04:24:57.758Z,179.35
2017-10-18T04:27:25.194Z,360.30
2017-10-18T04:29:52.912Z,185.33
2017-10-18T04:32:20.352Z,284.33
2017-10-18T04:34:47.792Z,454.85
2017-10-18T04:37:15.237Z,486.30
2017-10-18T04:39:42.653Z,492.43
2017-10-18T04:42:10.099Z,137.80
2017-10-18T04:44:37.674Z,276.97
2017-10-18T04:47:05.117Z,198.57
2017-10-18T04:49:32.565Z,147.87
2017-10-18T04:51:59.991Z,188.90
2017-10-18T04:54:27.397Z,118.73
2017-10-18T04:56:54.879Z,244.62
2017-10-18T04:59:22.296Z,181.27
2017-10-18T05:01:49.752Z,180.67
2017-10-18T05:04:17.195Z,145.07
2017-10-18T05:06:44.633Z,158.03
2017-10-18T05:09:12.218Z,391.23
2017-10-18T05:11:39.653Z,359.10
2017-10-18T05:14:07.072Z,155.70
2017-10-18T05:16:34.509Z,302.23
2017-10-18T05:19:01.939Z,171.63
2017-10-18T05:21:29.359Z,36.90
2017-10-18T05:23:56.980Z,84.67
2017-10-18T05:26:24.419Z,110.67
2017-10-18T05:28:51.859Z,116.80
2017-10-18T05:31:19.307Z,53.97
2017-10-18T05:33:46.809Z,65.07
2017-10-18T05:36:14.252Z,29.30
2017-10-18T05:38:41.803Z,65.43
2017-10-18T05:41:09.220Z,200.87
2017-10-18T05:43:36.725Z,231.27
2017-10-18T05:46:04.121Z,92.93
2017-10-18T05:48:31.565Z,129.87
2017-10-18T05:50:58.978Z,73.03
2017-10-18T05:53:26.403Z,66.40
2017-10-18T05:55:53.865Z,104.37
2017-10-18T05:58:21.293Z,161.00
2017-10-18T06:00:48.751Z,99.40
2017-10-18T06:03:16.414Z,37.37
2017-10-18T06:05:43.817Z,73.13
2017-10-18T06:08:11.529Z,77.53
2017-10-18T06:10:38.963Z,30.47
2017-10-18T06:13:06.387Z,33.60
2017-10-18T06:15:34.317Z,45.38
2017-10-18T06:18:01.759Z,47.87
2017-10-18T06:20:29.215Z,28.07
2017-10-18T06:22:56.639Z,32.90
2017-10-18T06:25:24.073Z,40.43
2017-10-18T06:27:51.603Z,69.33
2017-10-18T06:30:19.041Z,50.93
2017-10-18T06:32:46.520Z,39.53
2017-10-18T06:35:13.913Z,45.33
2017-10-18T06:37:41.406Z,49.13
2017-10-18T06:40:08.834Z,42.40
2017-10-18T06:42:36.234Z,41.27
2017-10-18T06:45:03.713Z,42.03
2017-10-18T06:47:31.170Z,52.10
2017-10-18T06:49:58.613Z,78.70
2017-10-18T06:52:26.130Z,103.53
2017-10-18T06:54:53.561Z,63.17
2017-10-18T06:57:20.978Z,50.70
2017-10-18T06:59:48.413Z,88.60
2017-10-18T07:02:15.820Z,64.60
2017-10-18T07:04:43.265Z,68.07
2017-10-18T07:07:10.790Z,49.40
2017-10-18T07:09:38.210Z,34.67
2017-10-18T07:12:05.748Z,86.23
2017-10-18T07:14:33.169Z,65.23
2017-10-18T07:17:01.698Z,108.50
2017-10-18T07:19:29.113Z,46.03
2017-10-18T07:21:56.544Z,49.60
2017-10-18T07:24:23.951Z,63.13
2017-10-18T07:26:51.405Z,68.90
2017-10-18T07:29:18.822Z,42.10
2017-10-18T07:31:46.284Z,48.27
2017-10-18T07:34:13.734Z,39.60
2017-10-18T07:36:41.145Z,45.70
2017-10-18T07:39:08.669Z,39.78
2017-10-18T07:41:36.102Z,48.97
2017-10-18T07:44:03.522Z,53.13
2017-10-18T07:46:30.933Z,35.30
2017-10-18T07:48:58.544Z,40.67
2017-10-18T07:51:25.956Z,43.60
2017-10-18T07:53:53.391Z,40.13
2017-10-18T07:56:20.836Z,40.70
2017-10-18T07:58:48.298Z,52.03
2017-10-18T08:01:15.720Z,50.93
2017-10-18T08:03:43.141Z,52.07
2017-10-18T08:06:10.568Z,56.17
2017-10-18T08:08:38.005Z,57.57
2017-10-18T08:11:05.414Z,50.50
2017-10-18T08:13:32.864Z,53.73
2017-10-18T08:16:00.293Z,52.50
2017-10-18T08:18:27.710Z,51.78
2017-10-18T08:20:55.196Z,49.43
2017-10-18T08:23:22.618Z,44.87
2017-10-18T08:25:50.128Z,46.10
2017-10-18T08:28:17.533Z,51.07
2017-10-18T08:30:44.972Z,42.60
2017-10-18T08:33:12.409Z,49.23
2017-10-18T08:35:39.845Z,55.65
2017-10-18T08:38:07.261Z,49.80
2017-10-18T08:40:35.159Z,53.60
2017-10-18T08:43:02.576Z,41.67
2017-10-18T08:45:29.981Z,42.53
2017-10-18T08:47:57.428Z,45.70
2017-10-18T08:50:24.832Z,44.47
2017-10-18T08:52:52.301Z,41.53
2017-10-18T08:55:19.898Z,38.53
2017-10-18T08:57:47.355Z,39.43
2017-10-18T09:00:14.921Z,43.50
2017-10-18T09:02:42.347Z,33.73
2017-10-18T09:05:09.811Z,31.03
2017-10-18T09:07:37.345Z,33.30
2017-10-18T09:10:04.790Z,34.60
2017-10-18T09:12:35.015Z,45.33
2017-10-18T09:15:02.468Z,38.27
2017-10-18T09:17:29.937Z,37.60
2017-10-18T09:19:57.636Z,39.73
2017-10-18T09:22:25.058Z,40.67
2017-10-18T09:24:52.629Z,46.47
2017-10-18T09:27:20.073Z,34.43
2017-10-18T09:29:47.478Z,34.30
2017-10-18T09:32:14.921Z,32.70
2017-10-18T09:34:42.363Z,29.00
2017-10-18T09:37:09.819Z,35.27
2017-10-18T09:39:37.253Z,33.10
2017-10-18T09:42:04.746Z,50.20
2017-10-18T09:44:32.253Z,36.43
2017-10-18T09:46:59.662Z,41.93
2017-10-18T09:49:27.085Z,33.63
2017-10-18T09:51:54.506Z,35.67
2017-10-18T09:54:21.928Z,34.77
2017-10-18T09:56:49.537Z,35.00
2017-10-18T09:59:16.990Z,30.37
2017-10-18T10:01:44.418Z,38.90
2017-10-18T10:04:11.841Z,51.77
2017-10-18T10:06:39.274Z,30.27
2017-10-18T10:09:06.702Z,33.63
2017-10-18T10:11:34.153Z,29.70
2017-10-18T10:14:01.597Z,33.63
2017-10-18T10:16:29.152Z,31.43
2017-10-18T10:18:56.597Z,31.83
2017-10-18T10:21:24.052Z,30.40
2017-10-18T10:23:51.602Z,23.60
2017-10-18T10:26:19.024Z,25.07
2017-10-18T10:28:46.457Z,29.57
2017-10-18T10:31:13.913Z,28.87
2017-10-18T10:33:41.341Z,25.50
2017-10-18T10:36:08.784Z,22.47
2017-10-18T10:38:36.232Z,32.10
2017-10-18T10:41:03.666Z,39.40
2017-10-18T10:43:31.076Z,32.53
2017-10-18T10:45:58.566Z,23.60
2017-10-18T10:48:26.044Z,39.17
2017-10-18T10:50:53.662Z,24.03
2017-10-18T10:53:21.084Z,28.63
2017-10-18T10:55:48.540Z,19.17
2017-10-18T10:58:15.966Z,27.20
2017-10-18T11:00:43.386Z,23.07
2017-10-18T11:03:10.873Z,19.83
2017-10-18T11:05:38.284Z,17.03
2017-10-18T11:08:05.732Z,15.73
2017-10-18T11:10:33.220Z,20.53
2017-10-18T11:13:00.649Z,15.40
2017-10-18T11:15:28.105Z,14.63
2017-10-18T11:17:55.619Z,21.13
2017-10-18T11:20:23.130Z,33.90
2017-10-18T11:22:50.566Z,14.37
2017-10-18T11:25:18.025Z,14.80
2017-10-18T11:27:45.480Z,17.48
2017-10-18T11:30:12.939Z,15.00
2017-10-18T11:32:40.391Z,37.30
2017-10-18T11:35:07.822Z,15.93
2017-10-18T11:37:35.306Z,16.37
2017-10-18T11:40:02.769Z,12.97
2017-10-18T11:42:30.195Z,12.33
2017-10-18T11:44:57.660Z,13.00
2017-10-18T11:47:25.077Z,15.30
2017-10-18T11:49:52.498Z,23.57
2017-10-18T11:52:19.950Z,14.83
2017-10-18T11:54:47.452Z,21.10
2017-10-18T11:57:14.992Z,26.50
2017-10-18T11:59:42.460Z,12.77
2017-10-18T12:02:09.893Z,14.33
2017-10-18T12:04:37.361Z,16.17
2017-10-18T12:07:04.815Z,17.43
2017-10-18T12:09:32.273Z,14.70
2017-10-18T12:11:59.933Z,12.93
2017-10-18T12:14:27.397Z,14.63
2017-10-18T12:16:54.861Z,14.43
2017-10-18T12:19:22.358Z,16.20
2017-10-18T12:21:49.766Z,16.87
2017-10-18T12:24:17.211Z,13.27
2017-10-18T12:26:44.640Z,17.02
2017-10-18T12:29:12.073Z,14.77
2017-10-18T12:31:39.521Z,27.53
2017-10-18T12:34:06.953Z,16.63
2017-10-18T12:36:34.393Z,18.10
2017-10-18T12:39:01.978Z,14.07
2017-10-18T12:41:29.534Z,14.43
2017-10-18T12:43:56.996Z,14.50
2017-10-18T12:46:24.424Z,13.40
2017-10-18T12:48:51.837Z,13.97
2017-10-18T12:51:19.271Z,19.40
2017-10-18T12:53:46.727Z,13.60
2017-10-18T12:56:14.189Z,19.07
2017-10-18T12:58:41.678Z,17.17
2017-10-18T13:01:09.121Z,16.60
2017-10-18T13:03:36.542Z,13.70
2017-10-18T13:06:04.001Z,13.77
2017-10-18T13:08:31.452Z,19.57
2017-10-18T13:10:58.868Z,18.53
2017-10-18T13:13:26.723Z,16.27
2017-10-18T13:15:54.165Z,14.77
2017-10-18T13:18:22.007Z,15.93
2017-10-18T13:20:49.470Z,19.90
2017-10-18T13:23:16.907Z,16.42
2017-10-18T13:25:44.414Z,17.83
2017-10-18T13:28:11.832Z,40.20
2017-10-18T13:30:39.290Z,26.60
2017-10-18T13:33:06.681Z,14.87
2017-10-18T13:35:34.150Z,22.50
2017-10-18T13:38:01.599Z,17.90
2017-10-18T13:40:29.027Z,15.50
2017-10-18T13:42:56.501Z,16.23
2017-10-18T13:45:23.941Z,16.30
2017-10-18T13:47:51.398Z,16.17
2017-10-18T13:50:18.816Z,13.43
2017-10-18T13:52:46.261Z,15.60
2017-10-18T13:55:13.666Z,16.83
2017-10-18T13:57:41.102Z,13.53
2017-10-18T14:00:08.705Z,14.17
2017-10-18T14:02:36.129Z,13.63
2017-10-18T14:05:03.544Z,21.50
2017-10-18T14:07:31.000Z,16.40
2017-10-18T14:09:58.476Z,20.03
2017-10-18T14:12:25.885Z,16.10
2017-10-18T14:14:53.314Z,23.10
2017-10-18T14:17:20.718Z,14.93
2017-10-18T14:19:49.046Z,23.97
2017-10-18T14:22:16.824Z,18.67
2017-10-18T14:24:44.257Z,16.67
2017-10-18T14:27:11.718Z,18.37
2017-10-18T14:29:39.134Z,14.33
2017-10-18T14:32:06.689Z,14.00
2017-10-18T14:34:34.102Z,12.50
2017-10-18T14:37:01.573Z,17.23
2017-10-18T14:39:29.284Z,12.43
2017-10-18T14:41:56.719Z,24.17
2017-10-18T14:44:24.203Z,14.10
2017-10-18T14:46:51.644Z,11.80
2017-10-18T14:49:19.071Z,12.57
2017-10-18T14:51:46.517Z,12.00
2017-10-18T14:54:13.943Z,12.00
2017-10-18T14:56:41.573Z,11.93
2017-10-18T14:59:08.978Z,12.97
2017-10-18T15:01:36.550Z,14.97
2017-10-18T15:04:03.983Z,16.03
2017-10-18T15:06:31.763Z,16.30
2017-10-18T15:08:59.219Z,12.73
2017-10-18T15:11:26.673Z,13.17
2017-10-18T15:13:54.102Z,13.27
2017-10-18T15:16:21.723Z,11.10
2017-10-18T15:18:49.186Z,12.30
2017-10-18T15:21:16.619Z,12.70
2017-10-18T15:23:44.101Z,13.20
2017-10-18T15:26:11.535Z,12.77
2017-10-18T15:28:38.970Z,17.10
2017-10-18T15:31:06.446Z,13.20
2017-10-18T15:33:33.892Z,12.70
2017-10-18T15:36:01.366Z,14.23
2017-10-18T15:38:28.802Z,14.13
2017-10-18T15:40:56.231Z,12.97
2017-10-18T15:43:23.705Z,13.10
2017-10-18T15:45:51.273Z,13.47
2017-10-18T15:48:18.742Z,12.37
2017-10-18T15:50:46.196Z,14.17
2017-10-18T15:53:13.704Z,19.58
2017-10-18T15:55:41.138Z,15.13
2017-10-18T15:58:08.550Z,13.47
2017-10-18T16:00:36.917Z,13.62
2017-10-18T16:03:04.356Z,13.13
2017-10-18T16:05:31.802Z,16.23
2017-10-18T16:07:59.285Z,14.07
2017-10-18T16:10:26.715Z,14.30
2017-10-18T16:12:54.173Z,14.10
2017-10-18T16:15:21.628Z,13.43
2017-10-18T16:17:49.612Z,13.43
2017-10-18T16:20:17.138Z,18.17
2017-10-18T16:22:44.569Z,14.03
2017-10-18T16:25:12.030Z,14.90
2017-10-18T16:27:39.446Z,28.03
2017-10-18T16:30:07.074Z,16.90
2017-10-18T16:32:34.549Z,19.40
2017-10-18T16:35:01.992Z,15.37
2017-10-18T16:37:29.571Z,14.43
2017-10-18T16:39:57.033Z,17.83
2017-10-18T16:42:24.578Z,16.80
2017-10-18T16:44:52.043Z,18.80
2017-10-18T16:47:19.438Z,15.23
2017-10-18T16:49:46.896Z,19.17
2017-10-18T16:52:14.332Z,18.13
2017-10-18T16:54:41.738Z,19.70
2017-10-18T16:57:09.178Z,22.20
2017-10-18T16:59:36.986Z,23.50
2017-10-18T17:02:04.554Z,20.67
2017-10-18T17:04:31.971Z,23.40
2017-10-18T17:06:59.426Z,21.30
2017-10-18T17:09:26.882Z,21.90
2017-10-18T17:11:54.358Z,28.40
2017-10-18T17:14:21.920Z,32.17
2017-10-18T17:16:49.366Z,21.00
2017-10-18T17:19:16.810Z,19.33
2017-10-18T17:21:44.433Z,21.57
2017-10-18T17:24:11.846Z,30.07
2017-10-18T17:26:39.492Z,28.20
2017-10-18T17:29:06.991Z,29.97
2017-10-18T17:31:35.761Z,29.87
2017-10-18T17:34:03.209Z,32.60
2017-10-18T17:36:30.629Z,31.03
2017-10-18T17:38:59.310Z,25.67
2017-10-18T17:41:27.028Z,30.00
2017-10-18T17:43:54.481Z,23.13
2017-10-18T17:46:21.926Z,22.70
2017-10-18T17:48:49.433Z,31.10
2017-10-18T17:51:16.861Z,27.57
2017-10-18T17:53:44.578Z,24.97
2017-10-18T17:56:12.068Z,22.63
2017-10-18T17:58:39.486Z,31.43
2017-10-18T18:01:06.956Z,21.77
2017-10-18T18:03:34.409Z,33.50
2017-10-18T18:06:01.994Z,34.13
2017-10-18T18:08:29.460Z,22.67
2017-10-18T18:10:56.909Z,26.20
2017-10-18T18:13:24.349Z,33.63
2017-10-18T18:15:51.818Z,21.83
2017-10-18T18:18:19.304Z,21.30
2017-10-18T18:20:47.023Z,25.07
2017-10-18T18:23:14.458Z,27.03
2017-10-18T18:25:42.416Z,28.27
2017-10-18T18:28:18.335Z,25.37
2017-10-18T18:30:46.081Z,28.53
2017-10-18T18:33:14.356Z,22.40
2017-10-18T18:35:42.008Z,24.20
2017-10-18T18:38:10.913Z,27.47
2017-10-18T18:40:39.398Z,24.23
2017-10-18T18:43:07.790Z,27.67
2017-10-18T18:45:35.372Z,23.77
2017-10-18T18:48:02.988Z,28.70
2017-10-18T18:50:30.487Z,32.00
2017-10-18T18:52:57.903Z,28.73
2017-10-18T18:55:25.796Z,24.90
2017-10-18T18:57:55.441Z,21.87
2017-10-18T19:00:25.867Z,29.40
2017-10-18T19:03:00.681Z,26.00
2017-10-18T19:05:28.407Z,25.20
2017-10-18T19:07:57.621Z,22.10
2017-10-18T19:10:25.349Z,32.67
2017-10-18T19:12:53.378Z,24.03
2017-10-18T19:15:20.938Z,27.07
2017-10-18T19:17:48.702Z,23.37
2017-10-18T19:20:16.582Z,27.03
2017-10-18T19:22:46.027Z,36.07
2017-10-18T19:25:13.806Z,26.10
2017-10-18T19:27:41.842Z,33.30
2017-10-18T19:30:09.305Z,28.00
2017-10-18T19:32:38.215Z,29.23
2017-10-18T19:35:06.012Z,36.83
2017-10-18T19:37:33.487Z,36.20
2017-10-18T19:40:02.742Z,33.65
2017-10-18T19:42:30.214Z,38.50
2017-10-18T19:44:58.097Z,30.17
2017-10-18T19:47:25.540Z,37.30
2017-10-18T19:49:53.007Z,35.47
2017-10-18T19:52:20.957Z,29.77
2017-10-18T19:54:48.578Z,30.30
2017-10-18T19:57:16.500Z,35.07
2017-10-18T19:59:43.961Z,28.05
2017-10-18T20:02:11.394Z,30.20
2017-10-18T20:04:41.080Z,31.60
2017-10-18T20:07:08.552Z,27.10
2017-10-18T20:09:36.046Z,31.60
2017-10-18T20:12:03.505Z,25.23
2017-10-18T20:14:30.954Z,30.17
2017-10-18T20:16:58.651Z,29.57
2017-10-18T20:19:26.083Z,25.23
2017-10-18T20:21:53.533Z,20.30
2017-10-18T20:24:21.253Z,25.90
2017-10-18T20:26:48.810Z,33.03
2017-10-18T20:29:16.254Z,19.00
2017-10-18T20:31:43.971Z,27.83
2017-10-18T20:34:11.440Z,32.20
2017-10-18T20:36:38.872Z,20.77
2017-10-18T20:39:06.337Z,22.27
2017-10-18T20:41:33.846Z,23.47
2017-10-18T20:44:01.688Z,22.20
2017-10-18T20:46:29.122Z,24.80
2017-10-18T20:48:56.621Z,25.23
2017-10-18T20:51:24.908Z,23.17
2017-10-18T20:53:52.373Z,20.23
2017-10-18T20:56:19.950Z,25.40
2017-10-18T20:58:47.444Z,21.33
2017-10-18T21:01:14.898Z,34.60
2017-10-18T21:03:42.314Z,24.40
2017-10-18T21:06:09.761Z,21.60
2017-10-18T21:13:23.046Z,28.67
2017-10-18T21:15:49.658Z,22.00
2017-10-18T21:18:16.274Z,24.50
2017-10-18T21:20:42.920Z,22.27
2017-10-18T21:23:09.540Z,25.53
2017-10-18T21:25:36.161Z,24.10
2017-10-18T21:28:02.806Z,30.43
2017-10-18T21:30:30.242Z,26.50
2017-10-18T21:32:56.868Z,40.07
2017-10-18T21:35:23.514Z,22.97
2017-10-18T21:37:50.096Z,29.20
2017-10-18T21:40:16.747Z,20.67
2017-10-18T21:42:43.353Z,21.77
2017-10-18T21:45:09.960Z,25.87
2017-10-18T21:47:36.624Z,20.83
2017-10-18T21:50:03.454Z,28.93
2017-10-18T21:52:30.047Z,21.00
2017-10-18T21:54:56.669Z,27.40
2017-10-18T21:57:23.297Z,25.30
2017-10-18T21:59:51.240Z,22.87
2017-10-18T22:02:17.843Z,22.80
2017-10-18T22:04:44.423Z,27.03
2017-10-18T22:07:11.051Z,25.57
2017-10-18T22:09:37.868Z,22.80
2017-10-18T22:12:04.489Z,23.63
2017-10-18T22:14:34.174Z,22.30
2017-10-18T22:17:00.772Z,25.13
2017-10-18T22:19:27.370Z,37.20
2017-10-18T22:21:54.001Z,21.77
2017-10-18T22:24:20.611Z,20.07
2017-10-18T22:26:47.281Z,33.27
2017-10-18T22:29:13.888Z,24.03
2017-10-18T22:31:46.557Z,24.00
2017-10-18T22:39:30.472Z,22.67
2017-10-18T22:41:57.064Z,19.50
2017-10-18T22:44:23.705Z,28.23
2017-10-18T22:46:50.282Z,20.93
2017-10-18T22:49:16.904Z,23.43
2017-10-18T22:51:43.545Z,26.17
2017-10-18T22:54:10.144Z,27.03
2017-10-18T22:56:36.780Z,21.50
2017-10-18T22:59:03.382Z,19.30
2017-10-18T23:01:29.988Z,27.70
2017-10-18T23:03:56.592Z,22.87
2017-10-18T23:06:23.199Z,19.33
2017-10-18T23:08:50.060Z,372.70
2017-10-18T23:11:16.661Z,122.43
2017-10-18T23:13:43.309Z,19.27
2017-10-18T23:16:09.955Z,23.43
2017-10-18T23:18:36.569Z,19.23
2017-10-18T23:21:03.180Z,23.87
2017-10-18T23:23:29.785Z,25.50
2017-10-18T23:25:56.612Z,24.30
2017-10-18T23:28:23.188Z,30.77
2017-10-18T23:30:49.798Z,18.33
2017-10-18T23:33:16.424Z,24.27
2017-10-18T23:35:43.013Z,22.40
2017-10-18T23:38:10.024Z,20.25
2017-10-18T23:40:36.821Z,31.13
2017-10-18T23:43:03.428Z,26.37
2017-10-18T23:45:30.022Z,19.33
2017-10-18T23:47:56.671Z,19.53
2017-10-18T23:50:23.276Z,21.57
2017-10-18T23:52:54.764Z,22.40
2017-10-18T23:55:21.369Z,28.03
2017-10-18T23:57:47.975Z,19.80
